sensor_id;sensor_type;location;lat;lon;timestamp;pressure;altitude;pressure_sealevel;temperature;humidity
59987;BME280;46181;51.498;5.392;2023-05-01T00:03:30;101632.6;;;17.7;43.98926
59987;BME280;46181;51.498;5.392;2023-05-01T00:08:00;101623.7;;;17.7;43.93066
59987;BME280;46181;51.498;5.392;2023-05-01T00:12:30;101615.8;;;17.68;43.83789
59987;BME280;46181;51.498;5.392;2023-05-01T00:17:00;101613.8;;;17.68;43.88281
59987;BME280;46181;51.498;5.392;2023-05-01T00:21:30;101609.2;;;17.66;44.01855
59987;BME280;46181;51.498;5.392;2023-05-01T00:26:00;101607.2;;;17.69;43.80371
59987;BME280;46181;51.498;5.392;2023-05-01T00:30:31;101599.6;;;17.65;43.85742
59987;BME280;46181;51.498;5.392;2023-05-01T00:35:00;101597;;;17.65;43.81152
59987;BME280;46181;51.498;5.392;2023-05-01T00:39:30;101595.5;;;17.63;43.77539
59987;BME280;46181;51.498;5.392;2023-05-01T00:44:00;101589.1;;;17.62;43.92285
59987;BME280;46181;51.498;5.392;2023-05-01T00:48:30;101594;;;17.63;44.07324
59987;BME280;46181;51.498;5.392;2023-05-01T00:53:01;101584.2;;;17.62;44.1875
59987;BME280;46181;51.498;5.392;2023-05-01T00:57:31;101577.1;;;17.6;44.43848
59987;BME280;46181;51.498;5.392;2023-05-01T01:02:00;101572.5;;;17.6;44.42578
59987;BME280;46181;51.498;5.392;2023-05-01T01:06:38;101562.4;;;17.56;44.60645
59987;BME280;46181;51.498;5.392;2023-05-01T01:11:05;101553.4;;;17.52;44.52246
59987;BME280;46181;51.498;5.392;2023-05-01T01:15:38;101548.9;;;17.47;44.49512
59987;BME280;46181;51.498;5.392;2023-05-01T01:20:18;101543.3;;;17.4;44.52148
59987;BME280;46181;51.498;5.392;2023-05-01T01:24:54;101536.3;;;17.33;44.52539
59987;BME280;46181;51.498;5.392;2023-05-01T01:29:30;101531.2;;;17.22;44.73242
59987;BME280;46181;51.498;5.392;2023-05-01T01:38:05;101519.6;;;17.29;44.76172
59987;BME280;46181;51.498;5.392;2023-05-01T01:42:35;101515.9;;;17.23;44.7793
59987;BME280;46181;51.498;5.392;2023-05-01T01:47:03;101507.3;;;17.19;44.75293
59987;BME280;46181;51.498;5.392;2023-05-01T01:51:33;101498.8;;;17.15;45.0127
59987;BME280;46181;51.498;5.392;2023-05-01T01:56:02;101496.4;;;17.11;45.00879
59987;BME280;46181;51.498;5.392;2023-05-01T02:00:31;101502.8;;;17.11;45.14648
59987;BME280;46181;51.498;5.392;2023-05-01T02:05:01;101491.9;;;17.09;45.25879
59987;BME280;46181;51.498;5.392;2023-05-01T02:09:31;101488.6;;;17.04;45.27637
59987;BME280;46181;51.498;5.392;2023-05-01T02:14:01;101482.6;;;17.05;45.33496
59987;BME280;46181;51.498;5.392;2023-05-01T02:18:32;101480.2;;;17.02;45.52637
59987;BME280;46181;51.498;5.392;2023-05-01T02:23:01;101479.6;;;16.99;45.73047
59987;BME280;46181;51.498;5.392;2023-05-01T02:27:33;101474.7;;;16.99;45.83301
59987;BME280;46181;51.498;5.392;2023-05-01T02:32:00;101472.1;;;17.02;45.95117
59987;BME280;46181;51.498;5.392;2023-05-01T02:36:30;101463.5;;;17;46.10938
59987;BME280;46181;51.498;5.392;2023-05-01T02:41:03;101449.8;;;16.92;46.2041
59987;BME280;46181;51.498;5.392;2023-05-01T02:45:31;101453.8;;;16.92;46.38672
59987;BME280;46181;51.498;5.392;2023-05-01T02:50:02;101449.7;;;16.91;46.41016
59987;BME280;46181;51.498;5.392;2023-05-01T02:54:31;101440.1;;;16.86;46.35938
59987;BME280;46181;51.498;5.392;2023-05-01T02:59:00;101433.3;;;16.84;46.63086
59987;BME280;46181;51.498;5.392;2023-05-01T03:03:30;101433.1;;;16.83;46.57324
59987;BME280;46181;51.498;5.392;2023-05-01T03:08:00;101425.4;;;16.8;46.68359
59987;BME280;46181;51.498;5.392;2023-05-01T03:12:31;101425.6;;;16.78;46.60254
59987;BME280;46181;51.498;5.392;2023-05-01T03:17:00;101421.4;;;16.73;46.76855
59987;BME280;46181;51.498;5.392;2023-05-01T03:21:30;101412.8;;;16.71;46.82422
59987;BME280;46181;51.498;5.392;2023-05-01T03:26:00;101403.9;;;16.69;46.94727
59987;BME280;46181;51.498;5.392;2023-05-01T03:30:30;101402.8;;;16.68;46.95898
59987;BME280;46181;51.498;5.392;2023-05-01T03:35:01;101398.2;;;16.63;47.09082
59987;BME280;46181;51.498;5.392;2023-05-01T03:39:31;101393.6;;;16.58;47.2334
59987;BME280;46181;51.498;5.392;2023-05-01T03:44:00;101394.9;;;16.58;47.3252
59987;BME280;46181;51.498;5.392;2023-05-01T03:48:31;101391.5;;;16.54;47.37891
59987;BME280;46181;51.498;5.392;2023-05-01T03:53:00;101394.3;;;16.51;47.45508
59987;BME280;46181;51.498;5.392;2023-05-01T03:57:31;101385.8;;;16.42;47.59473
59987;BME280;46181;51.498;5.392;2023-05-01T04:02:00;101383.8;;;16.37;47.95508
59987;BME280;46181;51.498;5.392;2023-05-01T04:06:31;101384.7;;;16.36;48.04492
59987;BME280;46181;51.498;5.392;2023-05-01T04:11:01;101377.7;;;16.34;48.07813
59987;BME280;46181;51.498;5.392;2023-05-01T04:15:30;101379;;;16.34;48.08984
59987;BME280;46181;51.498;5.392;2023-05-01T04:20:01;101378.1;;;16.3;48.15332
59987;BME280;46181;51.498;5.392;2023-05-01T04:24:31;101382.9;;;16.28;48.21875
59987;BME280;46181;51.498;5.392;2023-05-01T04:29:01;101395.9;;;16.33;48.28223
59987;BME280;46181;51.498;5.392;2023-05-01T04:33:31;101391.6;;;16.4;48.30176
59987;BME280;46181;51.498;5.392;2023-05-01T04:38:01;101388.7;;;16.44;48.31738
59987;BME280;46181;51.498;5.392;2023-05-01T04:42:33;101383.4;;;16.47;48.25195
59987;BME280;46181;51.498;5.392;2023-05-01T04:47:01;101381.6;;;16.45;48.31836
59987;BME280;46181;51.498;5.392;2023-05-01T04:51:31;101381.2;;;16.47;48.43457
59987;BME280;46181;51.498;5.392;2023-05-01T04:56:01;101376.9;;;16.45;48.2041
59987;BME280;46181;51.498;5.392;2023-05-01T05:00:31;101376.4;;;16.39;48.23242
59987;BME280;46181;51.498;5.392;2023-05-01T05:05:01;101375.3;;;16.38;48.35547
59987;BME280;46181;51.498;5.392;2023-05-01T05:09:31;101374.5;;;16.33;48.39648
59987;BME280;46181;51.498;5.392;2023-05-01T05:14:00;101373.4;;;16.34;48.45508
59987;BME280;46181;51.498;5.392;2023-05-01T05:18:31;101371.5;;;16.34;48.31836
59987;BME280;46181;51.498;5.392;2023-05-01T05:23:01;101375.6;;;16.35;48.2168
59987;BME280;46181;51.498;5.392;2023-05-01T05:27:31;101377.2;;;16.31;48.22266
59987;BME280;46181;51.498;5.392;2023-05-01T05:32:01;101374.2;;;16.29;48.30078
59987;BME280;46181;51.498;5.392;2023-05-01T05:36:31;101375.2;;;16.33;48.20215
59987;BME280;46181;51.498;5.392;2023-05-01T05:41:01;101365.9;;;16.36;48.14844
59987;BME280;46181;51.498;5.392;2023-05-01T05:45:31;101369.5;;;16.54;48.13281
59987;BME280;46181;51.498;5.392;2023-05-01T05:50:01;101373.8;;;16.73;47.69629
59987;BME280;46181;51.498;5.392;2023-05-01T05:54:31;101373.2;;;16.92;47.5332
59987;BME280;46181;51.498;5.392;2023-05-01T05:59:01;101366.5;;;17.14;47.3623
59987;BME280;46181;51.498;5.392;2023-05-01T06:03:31;101367.6;;;17.34;47.0625
59987;BME280;46181;51.498;5.392;2023-05-01T06:08:01;101365.8;;;17.47;46.99609
59987;BME280;46181;51.498;5.392;2023-05-01T06:12:31;101361.8;;;17.58;46.64063
59987;BME280;46181;51.498;5.392;2023-05-01T06:17:01;101366.3;;;17.71;46.55176
59987;BME280;46181;51.498;5.392;2023-05-01T06:21:31;101363.5;;;17.82;46.125
59987;BME280;46181;51.498;5.392;2023-05-01T06:26:01;101361.5;;;17.85;46.07129
59987;BME280;46181;51.498;5.392;2023-05-01T06:30:31;101356.4;;;18.08;46.16504
59987;BME280;46181;51.498;5.392;2023-05-01T06:35:01;101359;;;18.29;45.81836
59987;BME280;46181;51.498;5.392;2023-05-01T06:39:31;101354.2;;;18.5;45.51855
59987;BME280;46181;51.498;5.392;2023-05-01T06:44:01;101358.2;;;18.68;45.20215
59987;BME280;46181;51.498;5.392;2023-05-01T06:48:31;101353.6;;;18.88;44.79785
59987;BME280;46181;51.498;5.392;2023-05-01T06:53:01;101352.5;;;19.04;44.27246
59987;BME280;46181;51.498;5.392;2023-05-01T06:57:31;101353.9;;;19.19;44.29785
59987;BME280;46181;51.498;5.392;2023-05-01T07:02:01;101347.7;;;19.39;44.06445
59987;BME280;46181;51.498;5.392;2023-05-01T07:06:31;101351;;;19.68;43.48145
59987;BME280;46181;51.498;5.392;2023-05-01T07:11:01;101349.5;;;19.94;43.16016
59987;BME280;46181;51.498;5.392;2023-05-01T07:15:31;101348.9;;;20.07;42.91895
59987;BME280;46181;51.498;5.392;2023-05-01T07:20:01;101347.9;;;20.25;42.65918
59987;BME280;46181;51.498;5.392;2023-05-01T07:24:31;101349.1;;;20.42;42.22363
59987;BME280;46181;51.498;5.392;2023-05-01T07:29:01;101353.4;;;20.42;42.22461
59987;BME280;46181;51.498;5.392;2023-05-01T07:33:31;101356.4;;;20.65;42.18848
59987;BME280;46181;51.498;5.392;2023-05-01T07:38:01;101356.9;;;20.86;41.62793
59987;BME280;46181;51.498;5.392;2023-05-01T07:42:31;101358.7;;;21.14;41.27246
59987;BME280;46181;51.498;5.392;2023-05-01T07:47:05;101352.7;;;21.44;40.87012
59987;BME280;46181;51.498;5.392;2023-05-01T07:51:31;101358.7;;;21.83;39.98828
59987;BME280;46181;51.498;5.392;2023-05-01T07:56:07;101358.1;;;21.97;39.56055
59987;BME280;46181;51.498;5.392;2023-05-01T08:00:31;101353;;;22.11;39.43262
59987;BME280;46181;51.498;5.392;2023-05-01T08:05:01;101347.8;;;22.46;39.11523
59987;BME280;46181;51.498;5.392;2023-05-01T08:09:31;101343.8;;;22.85;38.56836
59987;BME280;46181;51.498;5.392;2023-05-01T08:14:01;101339.6;;;22.98;38.03125
59987;BME280;46181;51.498;5.392;2023-05-01T08:18:31;101345.1;;;23.1;37.73828
59987;BME280;46181;51.498;5.392;2023-05-01T08:23:01;101339.3;;;23.24;37.72754
59987;BME280;46181;51.498;5.392;2023-05-01T08:27:31;101339.3;;;23.41;37.32129
59987;BME280;46181;51.498;5.392;2023-05-01T08:32:01;101336.1;;;23.76;37.32813
59987;BME280;46181;51.498;5.392;2023-05-01T08:36:31;101337;;;24.06;36.61621
59987;BME280;46181;51.498;5.392;2023-05-01T08:41:02;101340.2;;;24.24;35.67285
59987;BME280;46181;51.498;5.392;2023-05-01T08:45:32;101342.4;;;24.37;35.46191
59987;BME280;46181;51.498;5.392;2023-05-01T08:50:02;101343.2;;;24.5;35.51855
59987;BME280;46181;51.498;5.392;2023-05-01T08:54:31;101347.9;;;24.66;34.73535
59987;BME280;46181;51.498;5.392;2023-05-01T08:59:03;101348.5;;;24.61;34.50879
59987;BME280;46181;51.498;5.392;2023-05-01T09:03:33;101353.6;;;24.5;34.76953
59987;BME280;46181;51.498;5.392;2023-05-01T09:08:01;101352.9;;;24.53;34.70117
59987;BME280;46181;51.498;5.392;2023-05-01T09:12:33;101350.1;;;24.57;34.55273
59987;BME280;46181;51.498;5.392;2023-05-01T09:17:01;101338.3;;;24.54;34.81934
59987;BME280;46181;51.498;5.392;2023-05-01T09:21:31;101347.3;;;24.53;34.54883
59987;BME280;46181;51.498;5.392;2023-05-01T09:26:01;101350.8;;;24.55;35.15918
59987;BME280;46181;51.498;5.392;2023-05-01T09:30:44;101344.4;;;24.61;35.08203
59987;BME280;46181;51.498;5.392;2023-05-01T09:35:11;101347.3;;;24.82;34.47852
59987;BME280;46181;51.498;5.392;2023-05-01T09:39:34;101346.6;;;25.03;34.22461
59987;BME280;46181;51.498;5.392;2023-05-01T09:44:01;101352.3;;;25.07;33.54785
59987;BME280;46181;51.498;5.392;2023-05-01T09:48:31;101348;;;25.26;33.67871
59987;BME280;46181;51.498;5.392;2023-05-01T09:53:02;101351.1;;;25.75;33.3877
59987;BME280;46181;51.498;5.392;2023-05-01T09:57:45;101352.6;;;26.09;32.74316
59987;BME280;46181;51.498;5.392;2023-05-01T10:02:01;101356.6;;;26.49;32.125
59987;BME280;46181;51.498;5.392;2023-05-01T10:06:40;101356.9;;;26.68;31.62207
59987;BME280;46181;51.498;5.392;2023-05-01T10:11:11;101353.8;;;26.65;31.20703
59987;BME280;46181;51.498;5.392;2023-05-01T10:15:38;101352.9;;;26.63;31.7832
59987;BME280;46181;51.498;5.392;2023-05-01T10:20:01;101358.3;;;26.71;31.49414
59987;BME280;46181;51.498;5.392;2023-05-01T10:24:31;101363.2;;;26.73;31.20117
59987;BME280;46181;51.498;5.392;2023-05-01T10:29:01;101360.9;;;26.89;30.96484
59987;BME280;46181;51.498;5.392;2023-05-01T10:33:31;101368;;;26.88;30.68164
59987;BME280;46181;51.498;5.392;2023-05-01T10:38:06;101357.2;;;27;30.63086
59987;BME280;46181;51.498;5.392;2023-05-01T10:42:31;101359.2;;;26.81;31.00781
59987;BME280;46181;51.498;5.392;2023-05-01T10:47:01;101361.8;;;26.72;31.15332
59987;BME280;46181;51.498;5.392;2023-05-01T10:51:32;101374.6;;;26.39;31.23633
59987;BME280;46181;51.498;5.392;2023-05-01T10:56:01;101366.5;;;26.08;31.88477
59987;BME280;46181;51.498;5.392;2023-05-01T11:00:31;101371.1;;;25.96;31.92383
59987;BME280;46181;51.498;5.392;2023-05-01T11:05:01;101376.5;;;26.03;31.9873
59987;BME280;46181;51.498;5.392;2023-05-01T11:09:45;101369.4;;;25.97;31.9248
59987;BME280;46181;51.498;5.392;2023-05-01T11:14:09;101369.7;;;26.05;32.07129
59987;BME280;46181;51.498;5.392;2023-05-01T11:18:51;101374.4;;;26.05;31.77734
59987;BME280;46181;51.498;5.392;2023-05-01T11:23:02;101374.6;;;25.83;32.05469
59987;BME280;46181;51.498;5.392;2023-05-01T11:27:31;101378.3;;;25.67;32.33691
59987;BME280;46181;51.498;5.392;2023-05-01T11:32:01;101380.3;;;25.78;32.31055
59987;BME280;46181;51.498;5.392;2023-05-01T11:36:45;101372.9;;;26.04;31.89453
59987;BME280;46181;51.498;5.392;2023-05-01T11:41:05;101368.3;;;25.93;31.3457
59987;BME280;46181;51.498;5.392;2023-05-01T11:45:31;101372.4;;;26.01;30.7998
59987;BME280;46181;51.498;5.392;2023-05-01T11:50:03;101374.6;;;26.33;30.49219
59987;BME280;46181;51.498;5.392;2023-05-01T11:54:31;101377.5;;;26.46;29.85352
59987;BME280;46181;51.498;5.392;2023-05-01T11:59:08;101372.4;;;26.45;29.8291
59987;BME280;46181;51.498;5.392;2023-05-01T12:03:31;101375.3;;;26.45;29.67578
59987;BME280;46181;51.498;5.392;2023-05-01T12:08:14;101372.8;;;26.31;30.50195
59987;BME280;46181;51.498;5.392;2023-05-01T12:12:31;101378.1;;;25.89;31.12012
59987;BME280;46181;51.498;5.392;2023-05-01T12:17:01;101378.2;;;25.88;31.55273
59987;BME280;46181;51.498;5.392;2023-05-01T12:21:31;101377.8;;;25.68;31.37598
59987;BME280;46181;51.498;5.392;2023-05-01T12:26:01;101382.8;;;25.44;31.07617
59987;BME280;46181;51.498;5.392;2023-05-01T12:30:36;101379;;;25.33;31.5498
59987;BME280;46181;51.498;5.392;2023-05-01T12:35:01;101377.3;;;25.28;31.08887
59987;BME280;46181;51.498;5.392;2023-05-01T12:39:34;101375.5;;;25.38;30.18164
59987;BME280;46181;51.498;5.392;2023-05-01T12:44:01;101377.9;;;25.47;30.25781
59987;BME280;46181;51.498;5.392;2023-05-01T12:48:32;101377.1;;;25.38;30.09863
59987;BME280;46181;51.498;5.392;2023-05-01T12:53:04;101367.9;;;25.36;30.63672
59987;BME280;46181;51.498;5.392;2023-05-01T12:57:31;101362.9;;;25.57;31.14453
59987;BME280;46181;51.498;5.392;2023-05-01T13:02:09;101375.3;;;25.8;30.88965
59987;BME280;46181;51.498;5.392;2023-05-01T13:06:38;101383.1;;;25.82;30.45703
59987;BME280;46181;51.498;5.392;2023-05-01T13:11:09;101380.5;;;25.88;30.74219
59987;BME280;46181;51.498;5.392;2023-05-01T13:15:31;101390.2;;;26.24;30.29785
59987;BME280;46181;51.498;5.392;2023-05-01T13:20:05;101385.2;;;26.45;29.22852
59987;BME280;46181;51.498;5.392;2023-05-01T13:24:38;101375;;;26.35;28.85742
59987;BME280;46181;51.498;5.392;2023-05-01T13:29:01;101386;;;26.43;29.12207
59987;BME280;46181;51.498;5.392;2023-05-01T13:33:31;101375.6;;;26.51;29.05664
59987;BME280;46181;51.498;5.392;2023-05-01T13:38:01;101375.8;;;26.43;28.56836
59987;BME280;46181;51.498;5.392;2023-05-01T13:42:32;101381.6;;;26.47;28.42969
59987;BME280;46181;51.498;5.392;2023-05-01T13:47:01;101387.4;;;26.4;28.2959
59987;BME280;46181;51.498;5.392;2023-05-01T13:51:32;101391.3;;;26.43;28.25098
59987;BME280;46181;51.498;5.392;2023-05-01T13:56:01;101390.7;;;26.51;27.6084
59987;BME280;46181;51.498;5.392;2023-05-01T14:00:31;101389.8;;;26.42;27.20215
59987;BME280;46181;51.498;5.392;2023-05-01T14:05:01;101399.9;;;26.29;27.52441
59987;BME280;46181;51.498;5.392;2023-05-01T14:09:31;101394.5;;;26.45;27.2041
59987;BME280;46181;51.498;5.392;2023-05-01T14:14:04;101400.7;;;26.71;26.88965
59987;BME280;46181;51.498;5.392;2023-05-01T14:18:31;101396.3;;;26.98;26.55176
59987;BME280;46181;51.498;5.392;2023-05-01T14:23:01;101398;;;27.28;26.2041
59987;BME280;46181;51.498;5.392;2023-05-01T14:27:31;101395;;;27.69;25.99121
59987;BME280;46181;51.498;5.392;2023-05-01T14:32:05;101388;;;27.88;25.54102
59987;BME280;46181;51.498;5.392;2023-05-01T14:36:31;101377.4;;;27.68;25.60059
59987;BME280;46181;51.498;5.392;2023-05-01T14:41:01;101387.6;;;27.28;25.9209
59987;BME280;46181;51.498;5.392;2023-05-01T14:45:31;101393;;;27.2;25.78613
59987;BME280;46181;51.498;5.392;2023-05-01T14:50:03;101396.7;;;27.09;25.95703
59987;BME280;46181;51.498;5.392;2023-05-01T14:54:31;101399.1;;;26.81;26.38867
59987;BME280;46181;51.498;5.392;2023-05-01T14:59:01;101410.2;;;26.57;26.72754
59987;BME280;46181;51.498;5.392;2023-05-01T15:03:32;101412.8;;;26.61;26.88281
59987;BME280;46181;51.498;5.392;2023-05-01T15:08:01;101416.3;;;26.46;26.88672
59987;BME280;46181;51.498;5.392;2023-05-01T15:12:31;101416.3;;;26.17;27.46973
59987;BME280;46181;51.498;5.392;2023-05-01T15:17:01;101415.5;;;25.95;27.99707
59987;BME280;46181;51.498;5.392;2023-05-01T15:21:31;101417.7;;;25.86;28.40234
59987;BME280;46181;51.498;5.392;2023-05-01T15:26:01;101415.6;;;25.71;29.18066
59987;BME280;46181;51.498;5.392;2023-05-01T15:30:31;101418.5;;;25.84;29.24805
59987;BME280;46181;51.498;5.392;2023-05-01T15:35:01;101423.1;;;25.74;29.53613
59987;BME280;46181;51.498;5.392;2023-05-01T15:39:31;101418.5;;;25.46;30.04492
59987;BME280;46181;51.498;5.392;2023-05-01T15:44:01;101422.1;;;25.42;30.69922
59987;BME280;46181;51.498;5.392;2023-05-01T15:48:31;101421.1;;;25.29;30.67871
59987;BME280;46181;51.498;5.392;2023-05-01T15:53:01;101425.1;;;25.2;31.21289
59987;BME280;46181;51.498;5.392;2023-05-01T15:57:32;101431.7;;;25.01;31.58594
59987;BME280;46181;51.498;5.392;2023-05-01T16:02:01;101428.6;;;24.76;31.86133
59987;BME280;46181;51.498;5.392;2023-05-01T16:06:31;101438.1;;;24.68;32.21973
59987;BME280;46181;51.498;5.392;2023-05-01T16:11:01;101445.6;;;24.62;31.92188
59987;BME280;46181;51.498;5.392;2023-05-01T16:15:31;101448.8;;;24.43;32.02539
59987;BME280;46181;51.498;5.392;2023-05-01T16:20:02;101452.9;;;24.13;32.65918
59987;BME280;46181;51.498;5.392;2023-05-01T16:24:32;101456.4;;;23.92;33.22852
59987;BME280;46181;51.498;5.392;2023-05-01T16:29:03;101460.1;;;23.71;34.13574
59987;BME280;46181;51.498;5.392;2023-05-01T16:33:31;101460.5;;;23.61;34.5957
59987;BME280;46181;51.498;5.392;2023-05-01T16:38:02;101468.6;;;23.49;35.09961
59987;BME280;46181;51.498;5.392;2023-05-01T16:42:31;101479.8;;;23.36;35.58008
59987;BME280;46181;51.498;5.392;2023-05-01T16:47:03;101487.9;;;23.26;36.00293
59987;BME280;46181;51.498;5.392;2023-05-01T16:51:31;101488.1;;;23.19;36.62695
59987;BME280;46181;51.498;5.392;2023-05-01T16:56:01;101487.2;;;23.16;36.88086
59987;BME280;46181;51.498;5.392;2023-05-01T17:00:31;101493.5;;;23.11;36.98145
59987;BME280;46181;51.498;5.392;2023-05-01T17:05:01;101495.3;;;23.04;37.1748
59987;BME280;46181;51.498;5.392;2023-05-01T17:09:31;101504.4;;;22.9;37.50098
59987;BME280;46181;51.498;5.392;2023-05-01T17:14:01;101498;;;22.81;37.83105
59987;BME280;46181;51.498;5.392;2023-05-01T17:18:31;101499.1;;;22.9;38.10547
59987;BME280;46181;51.498;5.392;2023-05-01T17:23:01;101504.9;;;22.9;38.02441
59987;BME280;46181;51.498;5.392;2023-05-01T17:27:31;101503.8;;;22.81;38.09961
59987;BME280;46181;51.498;5.392;2023-05-01T17:32:01;101509.6;;;22.74;38.44141
59987;BME280;46181;51.498;5.392;2023-05-01T17:36:31;101502.3;;;22.69;38.58789
59987;BME280;46181;51.498;5.392;2023-05-01T17:41:01;101509.7;;;22.56;38.93848
59987;BME280;46181;51.498;5.392;2023-05-01T17:45:31;101515.5;;;22.4;39.12207
59987;BME280;46181;51.498;5.392;2023-05-01T17:50:01;101526.8;;;22.23;39.54883
59987;BME280;46181;51.498;5.392;2023-05-01T17:54:31;101520.7;;;22.1;39.79297
59987;BME280;46181;51.498;5.392;2023-05-01T17:59:01;101528.5;;;22.14;39.92383
59987;BME280;46181;51.498;5.392;2023-05-01T18:03:31;101538.9;;;22.17;39.81055
59987;BME280;46181;51.498;5.392;2023-05-01T18:08:01;101538.6;;;22.12;39.72461
59987;BME280;46181;51.498;5.392;2023-05-01T18:12:31;101545.7;;;22.02;39.82031
59987;BME280;46181;51.498;5.392;2023-05-01T18:17:01;101561.4;;;21.96;39.8623
59987;BME280;46181;51.498;5.392;2023-05-01T18:21:31;101560.1;;;21.88;39.85547
59987;BME280;46181;51.498;5.392;2023-05-01T18:26:02;101563.9;;;21.7;40.32617
59987;BME280;46181;51.498;5.392;2023-05-01T18:30:31;101568;;;21.52;40.57715
59987;BME280;46181;51.498;5.392;2023-05-01T18:35:01;101576.4;;;21.26;41.1084
59987;BME280;46181;51.498;5.392;2023-05-01T18:39:31;101583.3;;;21.07;41.47363
59987;BME280;46181;51.498;5.392;2023-05-01T18:44:01;101591;;;20.9;41.80664
59987;BME280;46181;51.498;5.392;2023-05-01T18:48:31;101599.4;;;20.74;42.30078
59987;BME280;46181;51.498;5.392;2023-05-01T18:53:01;101603;;;20.61;42.55469
59987;BME280;46181;51.498;5.392;2023-05-01T18:57:31;101609.9;;;20.45;42.90918
59987;BME280;46181;51.498;5.392;2023-05-01T19:02:01;101612.1;;;20.29;43.20605
59987;BME280;46181;51.498;5.392;2023-05-01T19:11:01;101616.5;;;19.99;43.82324
59987;BME280;46181;51.498;5.392;2023-05-01T19:15:31;101626.3;;;19.87;44.37695
59987;BME280;46181;51.498;5.392;2023-05-01T19:20:01;101628.7;;;19.73;44.40918
59987;BME280;46181;51.498;5.392;2023-05-01T19:24:31;101638;;;19.59;44.81152
59987;BME280;46181;51.498;5.392;2023-05-01T19:29:01;101639.4;;;19.47;45.0752
59987;BME280;46181;51.498;5.392;2023-05-01T19:33:31;101648.1;;;19.37;45.23828
59987;BME280;46181;51.498;5.392;2023-05-01T19:38:05;101646.9;;;19.23;45.51172
59987;BME280;46181;51.498;5.392;2023-05-01T19:42:31;101652.1;;;19.16;45.73633
59987;BME280;46181;51.498;5.392;2023-05-01T19:47:01;101661.3;;;19.06;45.93262
59987;BME280;46181;51.498;5.392;2023-05-01T19:51:32;101675.6;;;18.95;46.11719
59987;BME280;46181;51.498;5.392;2023-05-01T19:56:01;101681.7;;;18.87;46.4541
59987;BME280;46181;51.498;5.392;2023-05-01T20:00:31;101681.7;;;18.75;46.79883
59987;BME280;46181;51.498;5.392;2023-05-01T20:05:01;101685.9;;;18.66;47.04199
59987;BME280;46181;51.498;5.392;2023-05-01T20:09:31;101694;;;18.56;47.18066
59987;BME280;46181;51.498;5.392;2023-05-01T20:14:01;101699.3;;;18.48;47.35645
59987;BME280;46181;51.498;5.392;2023-05-01T20:18:31;101705.8;;;18.37;47.73535
59987;BME280;46181;51.498;5.392;2023-05-01T20:23:16;101708.6;;;18.19;48.03809
59987;BME280;46181;51.498;5.392;2023-05-01T20:27:31;101715.7;;;18.22;48.04102
59987;BME280;46181;51.498;5.392;2023-05-01T20:32:01;101723.9;;;18.17;48.11621
59987;BME280;46181;51.498;5.392;2023-05-01T20:36:31;101725;;;18.07;48.21973
59987;BME280;46181;51.498;5.392;2023-05-01T20:41:01;101729.9;;;17.99;48.49902
59987;BME280;46181;51.498;5.392;2023-05-01T20:45:31;101736.7;;;17.89;48.64844
59987;BME280;46181;51.498;5.392;2023-05-01T20:50:01;101740.7;;;17.8;48.94824
59987;BME280;46181;51.498;5.392;2023-05-01T20:54:31;101741;;;17.7;49.21191
59987;BME280;46181;51.498;5.392;2023-05-01T20:59:01;101739.8;;;17.63;49.35449
59987;BME280;46181;51.498;5.392;2023-05-01T21:03:31;101739.1;;;17.55;49.43652
59987;BME280;46181;51.498;5.392;2023-05-01T21:08:01;101739.4;;;17.46;49.46094
59987;BME280;46181;51.498;5.392;2023-05-01T21:12:31;101745.5;;;17.37;49.68066
59987;BME280;46181;51.498;5.392;2023-05-01T21:17:01;101748;;;17.29;50.0498
59987;BME280;46181;51.498;5.392;2023-05-01T21:21:31;101751;;;17.19;50.33691
59987;BME280;46181;51.498;5.392;2023-05-01T21:26:02;101750.4;;;17.11;50.5791
59987;BME280;46181;51.498;5.392;2023-05-01T21:30:36;101756.1;;;16.99;50.69141
59987;BME280;46181;51.498;5.392;2023-05-01T21:35:03;101768.1;;;16.98;50.90723
59987;BME280;46181;51.498;5.392;2023-05-01T21:39:33;101772.8;;;16.91;51.10547
59987;BME280;46181;51.498;5.392;2023-05-01T21:44:01;101772.9;;;16.89;51.18359
59987;BME280;46181;51.498;5.392;2023-05-01T21:48:31;101784.2;;;16.85;51.42969
59987;BME280;46181;51.498;5.392;2023-05-01T21:53:01;101785.2;;;16.96;51.5459
59987;BME280;46181;51.498;5.392;2023-05-01T21:57:32;101787;;;17.06;51.52441
59987;BME280;46181;51.498;5.392;2023-05-01T22:02:01;101788.3;;;17.12;51.56445
59987;BME280;46181;51.498;5.392;2023-05-01T22:06:31;101792.8;;;17.15;51.68359
59987;BME280;46181;51.498;5.392;2023-05-01T22:11:01;101788.9;;;17.23;51.76074
59987;BME280;46181;51.498;5.392;2023-05-01T22:15:31;101796.5;;;17.28;51.77734
59987;BME280;46181;51.498;5.392;2023-05-01T22:20:01;101788.8;;;17.32;51.88672
59987;BME280;46181;51.498;5.392;2023-05-01T22:24:31;101791.9;;;17.4;51.91797
59987;BME280;46181;51.498;5.392;2023-05-01T22:29:01;101797.3;;;17.46;51.93555
59987;BME280;46181;51.498;5.392;2023-05-01T22:33:31;101800.8;;;17.53;51.89941
59987;BME280;46181;51.498;5.392;2023-05-01T22:38:01;101810.5;;;17.57;52.00684
59987;BME280;46181;51.498;5.392;2023-05-01T22:42:31;101809.7;;;17.6;51.88379
59987;BME280;46181;51.498;5.392;2023-05-01T22:47:01;101817.2;;;17.54;52.03809
59987;BME280;46181;51.498;5.392;2023-05-01T22:51:31;101822.9;;;17.46;52.1084
59987;BME280;46181;51.498;5.392;2023-05-01T22:56:01;101831.7;;;17.46;52.30371
59987;BME280;46181;51.498;5.392;2023-05-01T23:00:31;101830.5;;;17.5;52.33203
59987;BME280;46181;51.498;5.392;2023-05-01T23:05:01;101836.7;;;17.6;52.37793
59987;BME280;46181;51.498;5.392;2023-05-01T23:09:32;101846.7;;;17.65;52.28027